Monte Carlo — WDD6745 — position and weather

sailwx.info

Track history (hours):
 
Tides and Currents Weather Stations Pressure Air Temp Water Temp Dewpoint Dewpoint Depression Visibility Wind Speed Wind Dir Waves Ship Positions

Monte Carlo

Owner: PREMIER FISH CO., REDONDO BEACH, CA. More information available from US FCC via Universal Licensing System and Coast Guard Vessel Documentation Center.

Last reported at 2018-Jan-04 21:19 UTC. Time now 2018-Feb-25 03:47 UTC.
Position N 33°40' W 118°13'.
Warning: this ship's position is 51 days out of date.

Length 22 m.

Type: Fishing. MMSI: 367176990.

Date/timePositionNaut miles runAvg speedWind from/ knotsBaromVisibWave heightAir tempDewpointWater temp
2018-Jan-04 21:19N 33°40' W 118°13'1 2.0
2018-Jan-04 20:56N 33°41' W 118°13'1 1.0
2018-Jan-04 20:26N 33°41' W 118°13'0 0.3
2018-Jan-04 19:59N 33°41' W 118°13'1 0.1
2018-Jan-03 18:31N 33°42' W 118°14'1 8.4
2018-Jan-03 18:23N 33°43' W 118°15'4 0.2
2018-Jan-02 23:19N 33°42' W 118°11'0 0.7
2018-Jan-02 22:50N 33°42' W 118°10'2 0.8
2018-Jan-02 19:52N 33°40' W 118°12'0 0.6
2018-Jan-02 19:27N 33°39' W 118°12'0 1.0
2018-Jan-02 19:00N 33°40' W 118°12'3 0.1
2018-Jan-01 00:30N 33°40' W 118°16'2 0.2
2017-Dec-31 17:43N 33°39' W 118°16'1 1.5
2017-Dec-31 17:00N 33°40' W 118°17'6 0.5
2017-Dec-31 05:31N 33°39' W 118°09'0 6.1
2017-Dec-31 05:30N 33°39' W 118°09'5 1.9
2017-Dec-31 02:57N 33°42' W 118°14'2 1.5
2017-Dec-31 01:22N 33°43' W 118°17'4 2.5
2017-Dec-30 23:56N 33°39' W 118°16'1 0.6
2017-Dec-30 21:49N 33°39' W 118°15'1 0.2
2017-Dec-30 16:32N 33°38' W 118°13'0 0.1
2017-Dec-30 16:08N 33°38' W 118°13'0 0.4
2017-Dec-30 15:59N 33°38' W 118°13'2 0.1
2017-Dec-29 23:12N 33°40' W 118°15'1 0.6
2017-Dec-29 21:08N 33°39' W 118°14'0 0.0
2017-Dec-28 23:09N 33°39' W 118°14'1 4.1
2017-Dec-28 22:58N 33°38' W 118°13'0 0.0
2017-Dec-28 22:29N 33°38' W 118°13'0 0.6
2017-Dec-28 21:53N 33°39' W 118°14'0 0.6
2017-Dec-28 21:23N 33°39' W 118°14'14 0.3
2017-Dec-26 22:22N 33°47' W 118°28'0 0.0
2017-Dec-26 22:00N 33°47' W 118°28'0 0.4
2017-Dec-26 21:24N 33°47' W 118°28'  
Track history (hours):
 
Tides and Currents Weather Stations Pressure Air Temp Water Temp Dewpoint Dewpoint Depression Visibility Wind Speed Wind Dir Waves Ship Positions

Monte Carlo

Owner: PREMIER FISH CO., REDONDO BEACH, CA. More information available from US FCC via Universal Licensing System and Coast Guard Vessel Documentation Center.

Last reported at 2018-Jan-04 21:19 UTC. Time now 2018-Feb-25 03:47 UTC.
Position N 33°40' W 118°13'.
Warning: this ship's position is 51 days out of date.

Length 22 m.

Type: Fishing. MMSI: 367176990.

Date/timePositionNaut miles runAvg speedWind from/ knotsBaromVisibWave heightAir tempDewpointWater temp
2018-Jan-04 21:19N 33°40' W 118°13'1 2.0
2018-Jan-04 20:56N 33°41' W 118°13'1 1.0
2018-Jan-04 20:26N 33°41' W 118°13'0 0.3
2018-Jan-04 19:59N 33°41' W 118°13'1 0.1
2018-Jan-03 18:31N 33°42' W 118°14'1 8.4
2018-Jan-03 18:23N 33°43' W 118°15'4 0.2
2018-Jan-02 23:19N 33°42' W 118°11'0 0.7
2018-Jan-02 22:50N 33°42' W 118°10'2 0.8
2018-Jan-02 19:52N 33°40' W 118°12'0 0.6
2018-Jan-02 19:27N 33°39' W 118°12'0 1.0
2018-Jan-02 19:00N 33°40' W 118°12'3 0.1
2018-Jan-01 00:30N 33°40' W 118°16'2 0.2
2017-Dec-31 17:43N 33°39' W 118°16'1 1.5
2017-Dec-31 17:00N 33°40' W 118°17'6 0.5
2017-Dec-31 05:31N 33°39' W 118°09'0 6.1
2017-Dec-31 05:30N 33°39' W 118°09'5 1.9
2017-Dec-31 02:57N 33°42' W 118°14'2 1.5
2017-Dec-31 01:22N 33°43' W 118°17'4 2.5
2017-Dec-30 23:56N 33°39' W 118°16'1 0.6
2017-Dec-30 21:49N 33°39' W 118°15'1 0.2
2017-Dec-30 16:32N 33°38' W 118°13'0 0.1
2017-Dec-30 16:08N 33°38' W 118°13'0 0.4
2017-Dec-30 15:59N 33°38' W 118°13'2 0.1
2017-Dec-29 23:12N 33°40' W 118°15'1 0.6
2017-Dec-29 21:08N 33°39' W 118°14'0 0.0
2017-Dec-28 23:09N 33°39' W 118°14'1 4.1
2017-Dec-28 22:58N 33°38' W 118°13'0 0.0
2017-Dec-28 22:29N 33°38' W 118°13'0 0.6
2017-Dec-28 21:53N 33°39' W 118°14'0 0.6
2017-Dec-28 21:23N 33°39' W 118°14'14 0.3
2017-Dec-26 22:22N 33°47' W 118°28'0 0.0
2017-Dec-26 22:00N 33°47' W 118°28'0 0.4
2017-Dec-26 21:24N 33°47' W 118°28'  

Dump ship's entire track history